createdAt,value
2018-08-09T00:00:32.079Z,24.02
2018-08-09T00:01:36.565Z,24.01
2018-08-09T00:02:40.665Z,23.99
2018-08-09T00:03:44.868Z,23.99
2018-08-09T00:04:49.022Z,23.98
2018-08-09T00:05:53.175Z,23.97
2018-08-09T00:06:57.326Z,23.97
2018-08-09T00:08:01.485Z,23.97
2018-08-09T00:09:07.611Z,23.96
2018-08-09T00:10:11.791Z,23.97
2018-08-09T00:11:16.435Z,23.96
2018-08-09T00:12:20.565Z,23.95
2018-08-09T00:13:24.702Z,23.95
2018-08-09T00:14:28.854Z,23.92
2018-08-09T00:15:33.096Z,23.91
2018-08-09T00:16:37.642Z,23.91
2018-08-09T00:17:42.093Z,23.89
2018-08-09T00:18:46.218Z,23.88
2018-08-09T00:19:50.405Z,23.88
2018-08-09T00:20:54.581Z,23.87
2018-08-09T00:21:58.783Z,23.88
2018-08-09T00:23:02.937Z,23.89
2018-08-09T00:24:07.038Z,23.89
2018-08-09T00:25:11.225Z,23.91
2018-08-09T00:26:15.430Z,23.92
2018-08-09T00:27:19.738Z,23.92
2018-08-09T00:28:24.047Z,23.93
2018-08-09T00:29:28.181Z,23.92
2018-08-09T00:30:32.373Z,23.94
2018-08-09T00:31:36.501Z,23.93
2018-08-09T00:32:40.633Z,23.92
2018-08-09T00:33:44.782Z,23.93
2018-08-09T00:34:49.072Z,23.93
2018-08-09T00:35:53.426Z,23.93
2018-08-09T00:36:57.583Z,23.92
2018-08-09T00:38:01.715Z,23.90
2018-08-09T00:39:08.533Z,23.89
2018-08-09T00:40:12.681Z,23.88
2018-08-09T00:41:16.966Z,23.87
2018-08-09T00:42:21.106Z,23.86
2018-08-09T00:43:25.267Z,23.86
2018-08-09T00:44:29.482Z,23.85
2018-08-09T00:45:33.621Z,23.85
2018-08-09T00:46:37.990Z,23.85
2018-08-09T00:47:42.129Z,23.84
2018-08-09T00:48:46.313Z,23.82
2018-08-09T00:49:50.511Z,23.80
2018-08-09T00:50:54.646Z,23.78
2018-08-09T00:51:58.846Z,23.77
2018-08-09T00:53:03.016Z,23.75
2018-08-09T00:54:08.001Z,23.74
2018-08-09T00:55:12.350Z,23.72
2018-08-09T00:56:16.445Z,23.70
2018-08-09T00:57:20.760Z,23.69
2018-08-09T00:58:24.861Z,23.66
2018-08-09T00:59:29.375Z,23.66
2018-08-09T01:00:33.484Z,23.65
2018-08-09T01:01:37.785Z,23.65
2018-08-09T01:02:41.918Z,23.66
2018-08-09T01:03:46.047Z,23.67
2018-08-09T01:04:50.187Z,23.66
2018-08-09T01:05:54.326Z,23.67
2018-08-09T01:06:58.451Z,23.69
2018-08-09T01:08:02.619Z,23.72
2018-08-09T01:09:08.904Z,23.74
2018-08-09T01:10:13.025Z,23.76
2018-08-09T01:11:17.169Z,23.79
2018-08-09T01:12:21.286Z,23.82
2018-08-09T01:13:25.475Z,23.83
2018-08-09T01:14:29.599Z,23.86
2018-08-09T01:15:33.729Z,23.88
2018-08-09T01:16:37.873Z,23.88
2018-08-09T01:17:42.399Z,23.89
2018-08-09T01:18:46.686Z,23.89
2018-08-09T01:19:50.828Z,23.91
2018-08-09T01:20:55.089Z,23.93
2018-08-09T01:21:59.214Z,23.93
2018-08-09T01:23:03.366Z,23.94
2018-08-09T01:24:07.582Z,23.94
2018-08-09T01:25:11.705Z,23.93
2018-08-09T01:26:15.838Z,23.95
2018-08-09T01:27:19.969Z,23.94
2018-08-09T01:28:24.143Z,23.96
2018-08-09T01:29:28.278Z,23.96
2018-08-09T01:30:32.409Z,23.98
2018-08-09T01:31:38.174Z,23.98
2018-08-09T01:32:42.332Z,23.97
2018-08-09T01:33:46.417Z,23.97
2018-08-09T01:34:50.758Z,23.97
2018-08-09T01:35:55.254Z,23.97
2018-08-09T01:36:59.756Z,23.95
2018-08-09T01:38:04.448Z,23.93
2018-08-09T01:39:10.298Z,23.91
2018-08-09T01:40:14.823Z,23.89
2018-08-09T01:41:18.978Z,23.89
2018-08-09T01:42:34.233Z,23.89
2018-08-09T01:43:49.660Z,23.87
2018-08-09T01:44:53.793Z,23.85
2018-08-09T01:45:58.042Z,23.85
2018-08-09T01:47:02.189Z,23.83
2018-08-09T01:48:06.564Z,23.79
2018-08-09T01:49:10.788Z,23.78
2018-08-09T01:50:14.932Z,23.75
2018-08-09T01:51:19.102Z,23.75
2018-08-09T01:52:23.276Z,23.75
2018-08-09T01:53:27.434Z,23.73
2018-08-09T01:54:31.692Z,23.69
2018-08-09T01:55:35.810Z,23.67
2018-08-09T01:56:39.978Z,23.65
2018-08-09T01:57:44.147Z,23.63
2018-08-09T01:58:48.878Z,23.61
2018-08-09T01:59:53.027Z,23.59
2018-08-09T02:00:57.492Z,23.57
2018-08-09T02:02:01.688Z,23.52
2018-08-09T02:03:05.874Z,23.51
2018-08-09T02:04:10.182Z,23.49
2018-08-09T02:05:14.373Z,23.48
2018-08-09T02:06:19.505Z,23.46
2018-08-09T02:07:23.630Z,23.45
2018-08-09T02:08:27.787Z,23.43
2018-08-09T02:09:33.430Z,23.40
2018-08-09T02:10:37.635Z,23.36
2018-08-09T02:11:41.798Z,23.34
2018-08-09T02:12:45.991Z,23.32
2018-08-09T02:13:50.164Z,23.30
2018-08-09T02:14:54.359Z,23.29
2018-08-09T02:15:58.533Z,23.29
2018-08-09T02:17:02.704Z,23.29
2018-08-09T02:18:07.027Z,23.28
2018-08-09T02:19:11.203Z,23.27
2018-08-09T02:20:15.491Z,23.27
2018-08-09T02:21:19.652Z,23.27
2018-08-09T02:22:24.065Z,23.25
2018-08-09T02:23:28.490Z,23.26
2018-08-09T02:24:32.658Z,23.25
2018-08-09T02:25:36.823Z,23.22
2018-08-09T02:26:41.104Z,23.19
2018-08-09T02:27:45.234Z,23.17
2018-08-09T02:28:49.436Z,23.15
2018-08-09T02:29:53.590Z,23.15
2018-08-09T02:30:57.771Z,23.15
2018-08-09T02:32:01.940Z,23.14
2018-08-09T02:33:06.265Z,23.14
2018-08-09T02:34:10.549Z,23.15
2018-08-09T02:35:14.776Z,23.15
2018-08-09T02:36:19.218Z,23.15
2018-08-09T02:37:23.518Z,23.16
2018-08-09T02:38:27.665Z,23.16
2018-08-09T02:39:31.867Z,23.16
2018-08-09T02:40:36.231Z,23.17
2018-08-09T02:41:40.375Z,23.18
2018-08-09T02:42:44.539Z,23.19
2018-08-09T02:43:48.765Z,23.20
2018-08-09T02:44:52.939Z,23.19
2018-08-09T02:45:57.134Z,23.20
2018-08-09T02:47:01.319Z,23.19
2018-08-09T02:48:05.475Z,23.17
2018-08-09T02:49:09.637Z,23.15
2018-08-09T02:50:13.799Z,23.13
2018-08-09T02:51:24.597Z,23.11
2018-08-09T02:52:28.808Z,23.09
2018-08-09T02:53:32.945Z,23.07
2018-08-09T02:54:37.111Z,23.06
2018-08-09T02:55:41.422Z,23.05
2018-08-09T02:56:45.567Z,23.05
2018-08-09T02:57:49.823Z,23.04
2018-08-09T02:58:53.999Z,23.03
2018-08-09T02:59:58.243Z,23.04
2018-08-09T03:01:02.602Z,23.05
2018-08-09T03:02:06.793Z,23.06
2018-08-09T03:03:10.987Z,23.06
2018-08-09T03:04:15.165Z,23.06
2018-08-09T03:05:19.315Z,23.08
2018-08-09T03:06:23.589Z,23.10
2018-08-09T03:07:27.776Z,23.13
2018-08-09T03:08:31.950Z,23.15
2018-08-09T03:09:36.144Z,23.18
2018-08-09T03:10:40.319Z,23.19
2018-08-09T03:11:44.658Z,23.19
2018-08-09T03:12:48.820Z,23.21
2018-08-09T03:13:53.326Z,23.23
2018-08-09T03:14:57.524Z,23.26
2018-08-09T03:16:01.659Z,23.25
2018-08-09T03:17:06.216Z,23.27
2018-08-09T03:18:10.447Z,23.28
2018-08-09T03:19:14.652Z,23.27
2018-08-09T03:20:18.858Z,23.27
2018-08-09T03:21:22.983Z,23.25
2018-08-09T03:22:27.167Z,23.24
2018-08-09T03:23:31.293Z,23.22
2018-08-09T03:24:35.437Z,23.21
2018-08-09T03:25:39.626Z,23.21
2018-08-09T03:26:43.781Z,23.21
2018-08-09T03:27:47.944Z,23.21
2018-08-09T03:28:52.118Z,23.22
2018-08-09T03:29:56.644Z,23.21
2018-08-09T03:31:00.862Z,23.21
2018-08-09T03:32:05.023Z,23.22
2018-08-09T03:33:09.203Z,23.20
2018-08-09T03:34:13.451Z,23.20
2018-08-09T03:35:17.834Z,23.19
2018-08-09T03:36:22.328Z,23.20
2018-08-09T03:37:26.454Z,23.20
2018-08-09T03:38:30.652Z,23.19
2018-08-09T03:39:34.799Z,23.19
2018-08-09T03:40:38.951Z,23.19
2018-08-09T03:41:43.114Z,23.18
2018-08-09T03:42:47.276Z,23.20
2018-08-09T03:43:51.458Z,23.20
2018-08-09T03:44:55.601Z,23.22
2018-08-09T03:45:59.801Z,23.24
2018-08-09T03:47:03.974Z,23.26
2018-08-09T03:48:09.398Z,23.28
2018-08-09T03:49:13.602Z,23.29
2018-08-09T03:50:17.757Z,23.31
2018-08-09T03:51:22.075Z,23.32
2018-08-09T03:52:26.235Z,23.34
2018-08-09T03:53:30.446Z,23.34
2018-08-09T03:54:34.606Z,23.35
2018-08-09T03:55:38.762Z,23.36
2018-08-09T03:56:43.063Z,23.38
2018-08-09T03:57:47.189Z,23.40
2018-08-09T03:58:51.347Z,23.42
2018-08-09T03:59:55.541Z,23.43
2018-08-09T04:00:59.706Z,23.44
2018-08-09T04:02:03.912Z,23.44
2018-08-09T04:03:08.405Z,23.44
2018-08-09T04:04:12.551Z,23.46
2018-08-09T04:05:16.741Z,23.46
2018-08-09T04:06:20.908Z,23.45
2018-08-09T04:07:25.114Z,23.45
2018-08-09T04:09:32.168Z,23.47
2018-08-09T04:10:36.398Z,23.46
2018-08-09T04:11:41.122Z,23.46
2018-08-09T04:12:45.277Z,23.45
2018-08-09T04:13:49.471Z,23.44
2018-08-09T04:14:53.642Z,23.44
2018-08-09T04:15:57.819Z,23.43
2018-08-09T04:17:06.334Z,23.42
2018-08-09T04:18:10.580Z,23.41
2018-08-09T04:19:14.718Z,23.40
2018-08-09T04:20:18.920Z,23.39
2018-08-09T04:21:23.088Z,23.38
2018-08-09T04:22:27.249Z,23.36
2018-08-09T04:23:31.484Z,23.35
2018-08-09T04:24:35.614Z,23.35
2018-08-09T04:25:41.046Z,23.35
2018-08-09T04:26:45.227Z,23.34
2018-08-09T04:27:49.377Z,23.34
2018-08-09T04:28:53.534Z,23.33
2018-08-09T04:29:57.732Z,23.32
2018-08-09T04:31:01.902Z,23.32
2018-08-09T04:32:06.141Z,23.31
2018-08-09T04:33:10.338Z,23.32
2018-08-09T04:34:14.483Z,23.32
2018-08-09T04:35:18.632Z,23.33
2018-08-09T04:36:23.054Z,23.35
2018-08-09T04:37:27.209Z,23.36
2018-08-09T04:38:31.352Z,23.36
2018-08-09T04:39:35.570Z,23.40
2018-08-09T04:40:39.701Z,23.41
2018-08-09T04:41:43.846Z,23.43
2018-08-09T04:42:48.024Z,23.45
2018-08-09T04:43:52.206Z,23.47
2018-08-09T04:44:56.433Z,23.48
2018-08-09T04:46:00.598Z,23.51
2018-08-09T04:47:04.713Z,23.53
2018-08-09T04:48:08.872Z,23.55
2018-08-09T04:49:13.158Z,23.57
2018-08-09T04:50:17.266Z,23.59
2018-08-09T04:51:21.387Z,23.61
2018-08-09T04:52:25.518Z,23.64
2018-08-09T04:53:29.658Z,23.65
2018-08-09T04:54:33.827Z,23.67
2018-08-09T04:55:37.938Z,23.70
2018-08-09T04:56:42.074Z,23.73
2018-08-09T04:57:46.238Z,23.76
2018-08-09T04:58:50.385Z,23.77
2018-08-09T04:59:54.499Z,23.78
2018-08-09T05:00:58.635Z,23.79
2018-08-09T05:02:02.770Z,23.80
2018-08-09T05:03:07.098Z,23.81
2018-08-09T05:04:11.264Z,23.80
2018-08-09T05:05:15.413Z,23.80
2018-08-09T05:06:19.575Z,23.80
2018-08-09T05:07:23.718Z,23.80
2018-08-09T05:08:27.856Z,23.81
2018-08-09T05:09:32.088Z,23.81
2018-08-09T05:10:36.293Z,23.80
2018-08-09T05:11:40.994Z,23.81
2018-08-09T05:12:45.130Z,23.82
2018-08-09T05:13:49.264Z,23.83
2018-08-09T05:14:53.624Z,23.84
2018-08-09T05:15:57.796Z,23.85
2018-08-09T05:17:01.870Z,23.86
2018-08-09T05:18:06.031Z,23.86
2018-08-09T05:19:10.240Z,23.88
2018-08-09T05:20:14.359Z,23.89
2018-08-09T05:21:18.490Z,23.88
2018-08-09T05:22:22.637Z,23.88
2018-08-09T05:23:27.113Z,23.88
2018-08-09T05:24:31.399Z,23.89
2018-08-09T05:25:35.572Z,23.89
2018-08-09T05:26:39.806Z,23.90
2018-08-09T05:27:43.934Z,23.88
2018-08-09T05:28:48.087Z,23.90
2018-08-09T05:29:52.206Z,23.91
2018-08-09T05:30:56.365Z,23.93
2018-08-09T05:32:00.502Z,23.95
2018-08-09T05:33:04.652Z,23.97
2018-08-09T05:34:08.851Z,23.98
2018-08-09T05:35:13.011Z,24.00
2018-08-09T05:36:17.147Z,24.01
2018-08-09T05:37:21.478Z,24.03
2018-08-09T05:38:25.614Z,24.03
2018-08-09T05:39:29.769Z,24.03
2018-08-09T05:40:34.035Z,24.07
2018-08-09T05:41:38.175Z,24.10
2018-08-09T05:42:42.345Z,24.13
2018-08-09T05:43:46.462Z,24.15
2018-08-09T05:44:50.635Z,24.15
2018-08-09T05:45:54.856Z,24.13
2018-08-09T05:46:59.267Z,24.14
2018-08-09T05:48:03.493Z,24.14
2018-08-09T05:49:07.888Z,24.17
2018-08-09T05:50:12.043Z,24.21
2018-08-09T05:51:16.908Z,24.22
2018-08-09T05:52:21.669Z,24.24
2018-08-09T05:53:25.829Z,24.23
2018-08-09T05:54:30.038Z,24.21
2018-08-09T05:55:34.347Z,24.21
2018-08-09T05:56:38.456Z,24.25
2018-08-09T05:57:42.724Z,24.29
2018-08-09T05:58:46.979Z,24.31
2018-08-09T05:59:51.139Z,24.33
2018-08-09T06:00:55.252Z,24.38
2018-08-09T06:01:59.382Z,24.45
2018-08-09T06:03:03.567Z,24.48
2018-08-09T06:04:08.187Z,24.51
2018-08-09T06:05:12.474Z,24.58
2018-08-09T06:06:16.642Z,24.64
2018-08-09T06:07:20.806Z,24.70
2018-08-09T06:08:25.118Z,24.78
2018-08-09T06:09:29.258Z,24.82
2018-08-09T06:10:33.418Z,24.85
2018-08-09T06:11:37.538Z,24.87
2018-08-09T06:12:41.686Z,24.90
2018-08-09T06:13:45.855Z,24.94
2018-08-09T06:14:50.406Z,24.97
2018-08-09T06:15:54.558Z,24.99
2018-08-09T06:16:58.752Z,24.98
2018-08-09T06:18:02.922Z,25.00
2018-08-09T06:19:07.571Z,25.03
2018-08-09T06:20:11.692Z,25.06
2018-08-09T06:21:15.814Z,25.02
2018-08-09T06:22:19.982Z,24.99
2018-08-09T06:23:24.112Z,24.99
2018-08-09T06:24:28.266Z,25.01
2018-08-09T06:25:32.445Z,25.04
2018-08-09T06:26:36.733Z,25.03
2018-08-09T06:27:40.984Z,25.01
2018-08-09T06:28:45.195Z,24.97
2018-08-09T06:29:49.358Z,24.96
2018-08-09T06:30:53.981Z,24.96
2018-08-09T06:31:58.161Z,24.96
2018-08-09T06:33:02.290Z,24.97
2018-08-09T06:34:06.459Z,24.98
2018-08-09T06:35:11.367Z,25.00
2018-08-09T06:36:15.480Z,25.01
2018-08-09T06:37:19.633Z,25.01
2018-08-09T06:38:24.142Z,25.01
2018-08-09T06:39:28.596Z,25.03
2018-08-09T06:40:32.838Z,25.03
2018-08-09T06:41:37.620Z,25.07
2018-08-09T06:42:43.051Z,25.11
2018-08-09T06:43:47.261Z,25.17
2018-08-09T06:44:52.230Z,25.22
2018-08-09T06:45:56.450Z,25.29
2018-08-09T06:47:00.674Z,25.34
2018-08-09T06:48:05.618Z,25.38
2018-08-09T06:49:10.013Z,25.45
2018-08-09T06:50:14.230Z,25.49
2018-08-09T06:51:18.436Z,25.54
2018-08-09T06:52:22.642Z,25.58
2018-08-09T06:53:26.938Z,25.60
2018-08-09T06:54:31.155Z,25.60
2018-08-09T06:55:35.541Z,25.62
2018-08-09T06:56:40.283Z,25.65
2018-08-09T06:57:44.645Z,25.68
2018-08-09T06:58:49.410Z,25.69
2018-08-09T06:59:53.597Z,25.70
2018-08-09T07:00:58.726Z,25.74
2018-08-09T07:02:03.021Z,25.78
2018-08-09T07:03:07.195Z,25.83
2018-08-09T07:04:11.513Z,25.87
2018-08-09T07:05:15.869Z,25.92
2018-08-09T07:06:20.031Z,26.00
2018-08-09T07:07:24.238Z,26.07
2018-08-09T07:08:28.472Z,26.14
2018-08-09T07:09:32.632Z,26.19
2018-08-09T07:10:36.787Z,26.23
2018-08-09T07:11:40.949Z,26.31
2018-08-09T07:12:45.182Z,26.36
2018-08-09T07:13:49.271Z,26.41
2018-08-09T07:14:53.430Z,26.41
2018-08-09T07:15:57.737Z,26.43
2018-08-09T07:17:01.904Z,26.39
2018-08-09T07:18:06.286Z,26.38
2018-08-09T07:19:10.646Z,26.38
2018-08-09T07:20:14.834Z,26.38
2018-08-09T07:21:19.002Z,26.39
2018-08-09T07:22:23.183Z,26.43
2018-08-09T07:23:27.751Z,26.46
2018-08-09T07:24:31.970Z,26.50
2018-08-09T07:25:36.116Z,26.52
2018-08-09T07:26:40.298Z,26.53
2018-08-09T07:27:44.495Z,26.53
2018-08-09T07:28:48.711Z,26.54
2018-08-09T07:29:52.901Z,26.56
2018-08-09T07:30:57.070Z,26.58
2018-08-09T07:32:01.238Z,26.61
2018-08-09T07:33:05.409Z,26.61
2018-08-09T07:34:09.606Z,26.62
2018-08-09T07:35:13.878Z,26.64
2018-08-09T07:36:18.330Z,26.64
2018-08-09T07:37:22.534Z,26.65
2018-08-09T07:38:26.871Z,26.65
2018-08-09T07:39:31.068Z,26.66
2018-08-09T07:40:35.354Z,26.70
2018-08-09T07:41:40.338Z,26.73
2018-08-09T07:42:44.475Z,26.76
2018-08-09T07:43:48.607Z,26.78
2018-08-09T07:44:52.774Z,26.78
2018-08-09T07:45:56.921Z,26.79
2018-08-09T07:47:01.042Z,26.79
2018-08-09T07:48:05.187Z,26.79
2018-08-09T07:49:09.421Z,26.79
2018-08-09T07:50:13.703Z,26.80
2018-08-09T07:51:17.842Z,26.82
2018-08-09T07:52:22.283Z,26.80
2018-08-09T07:53:26.443Z,26.81
2018-08-09T07:54:30.616Z,26.82
2018-08-09T07:55:34.932Z,26.84
2018-08-09T07:56:39.148Z,26.86
2018-08-09T07:57:43.354Z,26.88
2018-08-09T07:58:47.486Z,26.87
2018-08-09T07:59:51.663Z,26.88
2018-08-09T08:00:55.914Z,26.88
2018-08-09T08:02:00.187Z,26.88
2018-08-09T08:03:04.530Z,26.88
2018-08-09T08:04:09.047Z,26.86
2018-08-09T08:05:13.214Z,26.86
2018-08-09T08:06:17.436Z,26.84
2018-08-09T08:07:21.714Z,26.85
2018-08-09T08:08:25.893Z,26.86
2018-08-09T08:09:30.021Z,26.88
2018-08-09T08:10:34.233Z,26.89
2018-08-09T08:11:38.434Z,26.87
2018-08-09T08:12:42.546Z,26.85
2018-08-09T08:13:46.754Z,26.84
2018-08-09T08:14:50.950Z,26.83
2018-08-09T08:15:55.065Z,26.85
2018-08-09T08:16:59.626Z,26.83
2018-08-09T08:18:03.806Z,26.78
2018-08-09T08:19:07.945Z,26.76
2018-08-09T08:20:12.194Z,26.76
2018-08-09T08:21:16.329Z,26.77
2018-08-09T08:22:20.501Z,26.77
2018-08-09T08:23:24.686Z,26.79
2018-08-09T08:24:28.795Z,26.79
2018-08-09T08:25:32.998Z,26.80
2018-08-09T08:26:37.275Z,26.80
2018-08-09T08:27:41.405Z,26.80
2018-08-09T08:28:45.639Z,26.80
2018-08-09T08:29:49.814Z,26.80
2018-08-09T08:30:54.122Z,26.79
2018-08-09T08:31:58.403Z,26.80
2018-08-09T08:33:02.549Z,26.80
2018-08-09T08:34:06.946Z,26.80
2018-08-09T08:35:11.522Z,26.81
2018-08-09T08:36:16.070Z,26.81
2018-08-09T08:37:20.209Z,26.82
2018-08-09T08:38:24.377Z,26.84
2018-08-09T08:39:28.902Z,26.86
2018-08-09T08:40:33.050Z,26.89
2018-08-09T08:41:37.547Z,26.92
2018-08-09T08:42:41.557Z,26.95
2018-08-09T08:43:45.814Z,26.98
2018-08-09T08:44:49.942Z,27.01
2018-08-09T08:45:54.459Z,27.07
2018-08-09T08:46:58.601Z,27.09
2018-08-09T08:48:02.756Z,27.09
2018-08-09T08:49:06.930Z,27.09
2018-08-09T08:50:11.618Z,27.08
2018-08-09T08:51:15.767Z,27.09
2018-08-09T08:52:19.905Z,27.09
2018-08-09T08:53:24.042Z,27.10
2018-08-09T08:54:28.210Z,27.10
2018-08-09T08:55:32.377Z,27.09
2018-08-09T08:56:36.540Z,27.09
2018-08-09T08:57:40.694Z,27.10
2018-08-09T08:58:44.826Z,27.13
2018-08-09T08:59:49.197Z,27.14
2018-08-09T09:00:53.329Z,27.17
2018-08-09T09:01:57.504Z,27.19
2018-08-09T09:03:01.626Z,27.23
2018-08-09T09:04:05.920Z,27.24
2018-08-09T09:05:12.313Z,27.25
2018-08-09T09:06:16.651Z,27.24
2018-08-09T09:07:20.834Z,27.24
2018-08-09T09:08:24.992Z,27.24
2018-08-09T09:09:29.138Z,27.23
2018-08-09T09:10:33.504Z,27.23
2018-08-09T09:11:37.677Z,27.22
2018-08-09T09:12:41.853Z,27.24
2018-08-09T09:13:46.141Z,27.25
2018-08-09T09:14:50.278Z,27.27
2018-08-09T09:15:54.490Z,27.29
2018-08-09T09:16:58.733Z,27.31
2018-08-09T09:18:02.882Z,27.37
2018-08-09T09:19:07.426Z,27.43
2018-08-09T09:20:14.482Z,27.46
2018-08-09T09:21:18.829Z,27.48
2018-08-09T09:22:24.323Z,27.50
2018-08-09T09:23:28.475Z,27.51
2018-08-09T09:24:32.692Z,27.50
2018-08-09T09:25:36.814Z,27.49
2018-08-09T09:26:41.187Z,27.51
2018-08-09T09:27:45.322Z,27.51
2018-08-09T09:28:49.445Z,27.52
2018-08-09T09:29:53.591Z,27.55
2018-08-09T09:30:57.747Z,27.61
2018-08-09T09:32:01.984Z,27.63
2018-08-09T09:33:06.235Z,27.64
2018-08-09T09:34:10.367Z,27.69
2018-08-09T09:35:14.558Z,27.73
2018-08-09T09:36:18.700Z,27.75
2018-08-09T09:37:23.090Z,27.76
2018-08-09T09:38:27.248Z,27.78
2018-08-09T09:39:31.653Z,27.77
2018-08-09T09:40:35.789Z,27.74
2018-08-09T09:41:40.328Z,27.73
2018-08-09T09:42:44.497Z,27.73
2018-08-09T09:43:48.673Z,27.73
2018-08-09T09:44:54.183Z,27.76
2018-08-09T09:45:58.325Z,27.74
2018-08-09T09:47:02.450Z,27.64
2018-08-09T09:48:06.825Z,27.50
2018-08-09T09:49:10.970Z,27.39
2018-08-09T09:50:15.134Z,27.32
2018-08-09T09:51:19.264Z,27.28
2018-08-09T09:52:23.811Z,27.25
2018-08-09T09:53:27.978Z,27.23
2018-08-09T09:54:32.134Z,27.22
2018-08-09T09:55:36.296Z,27.23
2018-08-09T09:56:40.446Z,27.22
2018-08-09T09:57:44.630Z,27.24
2018-08-09T09:58:48.797Z,27.24
2018-08-09T09:59:53.092Z,27.22
2018-08-09T10:01:02.553Z,27.21
2018-08-09T10:02:06.715Z,27.20
2018-08-09T10:03:10.833Z,27.17
2018-08-09T10:04:15.003Z,27.16
2018-08-09T10:05:19.158Z,27.14
2018-08-09T10:06:23.329Z,27.14
2018-08-09T10:07:27.498Z,27.13
2018-08-09T10:08:31.643Z,27.12
2018-08-09T10:09:35.794Z,27.10
2018-08-09T10:10:39.939Z,27.10
2018-08-09T10:11:44.075Z,27.09
2018-08-09T10:12:48.308Z,27.09
2018-08-09T10:13:52.606Z,27.09
2018-08-09T10:14:56.770Z,27.10
2018-08-09T10:16:01.280Z,27.11
2018-08-09T10:17:05.435Z,27.12
2018-08-09T10:18:09.778Z,27.13
2018-08-09T10:19:13.925Z,27.15
2018-08-09T10:20:18.106Z,27.18
2018-08-09T10:21:22.246Z,27.19
2018-08-09T10:22:26.370Z,27.22
2018-08-09T10:23:30.553Z,27.23
2018-08-09T10:24:34.676Z,27.27
2018-08-09T10:25:38.840Z,27.29
2018-08-09T10:26:43.023Z,27.31
2018-08-09T10:27:47.330Z,27.34
2018-08-09T10:28:51.464Z,27.37
2018-08-09T10:29:55.795Z,27.41
2018-08-09T10:30:59.966Z,27.45
2018-08-09T10:32:04.142Z,27.49
2018-08-09T10:33:08.286Z,27.53
2018-08-09T10:34:12.563Z,27.58
2018-08-09T10:35:16.693Z,27.62
2018-08-09T10:36:20.867Z,27.69
2018-08-09T10:37:25.015Z,27.74
2018-08-09T10:38:29.175Z,27.80
2018-08-09T10:39:33.485Z,27.85
2018-08-09T10:40:37.636Z,27.90
2018-08-09T10:41:41.930Z,27.91
2018-08-09T10:42:46.141Z,28.01
2018-08-09T10:43:50.171Z,28.07
2018-08-09T10:44:54.426Z,28.12
2018-08-09T10:45:58.594Z,28.19
2018-08-09T10:47:02.761Z,28.27
2018-08-09T10:48:06.964Z,28.35
2018-08-09T10:49:11.102Z,28.43
2018-08-09T10:50:15.248Z,28.53
2018-08-09T10:51:19.433Z,28.60
2018-08-09T10:52:23.578Z,28.70
2018-08-09T10:53:27.723Z,28.78
2018-08-09T10:54:31.872Z,28.85
2018-08-09T10:55:36.092Z,28.90
2018-08-09T10:56:40.181Z,28.99
2018-08-09T10:57:44.539Z,29.07
2018-08-09T10:58:48.876Z,29.14
2018-08-09T10:59:53.075Z,29.20
2018-08-09T11:00:57.241Z,29.25
2018-08-09T11:02:01.488Z,29.29
2018-08-09T11:03:05.838Z,29.31
2018-08-09T11:04:10.003Z,29.34
2018-08-09T11:05:14.276Z,29.35
2018-08-09T11:06:18.576Z,29.37
2018-08-09T11:07:22.863Z,29.37
2018-08-09T11:08:27.045Z,29.41
2018-08-09T11:09:31.329Z,29.46
2018-08-09T11:10:35.461Z,29.44
2018-08-09T11:11:39.640Z,29.59
2018-08-09T11:12:43.948Z,29.68
2018-08-09T11:13:48.094Z,29.78
2018-08-09T11:14:52.235Z,29.84
2018-08-09T11:15:56.462Z,29.89
2018-08-09T11:17:00.829Z,29.95
2018-08-09T11:18:05.306Z,29.99
2018-08-09T11:19:09.486Z,30.03
2018-08-09T11:20:13.612Z,30.04
2018-08-09T11:21:17.729Z,30.06
2018-08-09T11:22:21.859Z,30.09
2018-08-09T11:23:26.262Z,30.12
2018-08-09T11:24:30.421Z,30.16
2018-08-09T11:25:34.646Z,30.21
2018-08-09T11:26:38.782Z,30.27
2018-08-09T11:27:43.088Z,30.31
2018-08-09T11:28:47.214Z,30.34
2018-08-09T11:29:51.437Z,30.36
2018-08-09T11:30:55.902Z,30.39
2018-08-09T11:32:00.311Z,30.40
2018-08-09T11:33:04.565Z,30.40
2018-08-09T11:34:08.828Z,30.42
2018-08-09T11:35:12.922Z,30.40
2018-08-09T11:36:17.057Z,30.41
2018-08-09T11:37:21.181Z,30.40
2018-08-09T11:38:25.595Z,30.39
2018-08-09T11:39:29.793Z,30.40
2018-08-09T11:40:34.363Z,30.41
2018-08-09T11:41:38.546Z,30.44
2018-08-09T11:42:42.747Z,30.46
2018-08-09T11:43:46.897Z,30.50
2018-08-09T11:44:51.069Z,30.53
2018-08-09T11:45:55.594Z,30.57
2018-08-09T11:46:59.771Z,30.61
2018-08-09T11:48:03.954Z,30.65
2018-08-09T11:49:08.167Z,30.68
2018-08-09T11:50:12.319Z,30.72
2018-08-09T11:51:16.539Z,30.74
2018-08-09T11:52:20.722Z,30.76
2018-08-09T11:53:24.895Z,30.80
2018-08-09T11:54:29.078Z,30.81
2018-08-09T11:55:33.792Z,30.82
2018-08-09T11:56:38.196Z,30.84
2018-08-09T11:57:42.337Z,30.86
2018-08-09T11:58:46.514Z,30.87
2018-08-09T11:59:50.913Z,30.88
2018-08-09T12:00:55.098Z,30.87
2018-08-09T12:01:59.299Z,30.90
2018-08-09T12:03:03.517Z,30.91
2018-08-09T12:04:07.960Z,30.90
2018-08-09T12:05:12.126Z,30.90
2018-08-09T12:06:16.459Z,30.89
2018-08-09T12:07:20.644Z,30.87
2018-08-09T12:08:24.793Z,30.84
2018-08-09T12:09:28.999Z,30.80
2018-08-09T12:10:33.189Z,30.77
2018-08-09T12:11:37.766Z,30.73
2018-08-09T12:12:42.030Z,30.71
2018-08-09T12:13:46.258Z,30.69
2018-08-09T12:14:50.488Z,30.68
2018-08-09T12:15:54.674Z,30.67
2018-08-09T12:16:58.897Z,30.66
2018-08-09T12:18:03.209Z,30.65
2018-08-09T12:19:07.598Z,30.67
2018-08-09T12:20:11.846Z,30.67
2018-08-09T12:21:16.206Z,30.69
2018-08-09T12:22:20.461Z,30.70
2018-08-09T12:23:24.662Z,30.70
2018-08-09T12:24:29.012Z,30.70
2018-08-09T12:25:33.158Z,30.70
2018-08-09T12:26:37.380Z,30.69
2018-08-09T12:27:41.586Z,30.68
2018-08-09T12:28:45.771Z,30.68
2018-08-09T12:29:49.982Z,30.67
2018-08-09T12:30:54.167Z,30.65
2018-08-09T12:31:58.410Z,30.62
2018-08-09T12:33:02.638Z,30.60
2018-08-09T12:34:07.759Z,30.57
2018-08-09T12:35:13.037Z,30.54
2018-08-09T12:36:17.251Z,30.51
2018-08-09T12:37:21.618Z,30.48
2018-08-09T12:38:25.890Z,30.46
2018-08-09T12:39:30.093Z,30.44
2018-08-09T12:40:34.262Z,30.43
2018-08-09T12:41:38.602Z,30.42
2018-08-09T12:42:42.760Z,30.41
2018-08-09T12:43:46.994Z,30.40
2018-08-09T12:44:51.326Z,30.38
2018-08-09T12:45:55.458Z,30.36
2018-08-09T12:46:59.595Z,30.34
2018-08-09T12:48:03.910Z,30.33
2018-08-09T12:49:08.250Z,30.33
2018-08-09T12:50:14.622Z,30.29
2018-08-09T12:51:18.803Z,30.19
2018-08-09T12:52:22.949Z,30.06
2018-08-09T12:53:27.106Z,29.87
2018-08-09T12:54:31.258Z,29.71
2018-08-09T12:55:35.429Z,29.61
2018-08-09T12:56:39.582Z,29.53
2018-08-09T12:57:43.715Z,29.48
2018-08-09T12:58:47.862Z,29.45
2018-08-09T12:59:52.030Z,29.43
2018-08-09T13:00:56.212Z,29.43
2018-08-09T13:02:00.375Z,29.45
2018-08-09T13:03:04.586Z,29.46
2018-08-09T13:04:08.767Z,29.46
2018-08-09T13:05:13.230Z,29.44
2018-08-09T13:06:17.406Z,29.44
2018-08-09T13:07:21.555Z,29.44
2018-08-09T13:08:25.747Z,29.45
2018-08-09T13:09:29.906Z,29.46
2018-08-09T13:10:34.078Z,29.48
2018-08-09T13:11:38.466Z,29.50
2018-08-09T13:12:42.612Z,29.52
2018-08-09T13:13:46.938Z,29.54
2018-08-09T13:14:51.094Z,29.56
2018-08-09T13:15:55.631Z,29.57
2018-08-09T13:16:59.924Z,29.58
2018-08-09T13:18:04.059Z,29.58
2018-08-09T13:19:08.486Z,29.58
2018-08-09T13:20:14.866Z,29.60
2018-08-09T13:21:19.213Z,29.63
2018-08-09T13:22:23.393Z,29.67
2018-08-09T13:23:27.608Z,29.69
2018-08-09T13:24:31.746Z,29.73
2018-08-09T13:25:36.183Z,29.78
2018-08-09T13:26:40.331Z,29.82
2018-08-09T13:27:44.542Z,29.87
2018-08-09T13:28:48.723Z,29.91
2018-08-09T13:29:52.882Z,29.92
2018-08-09T13:30:57.050Z,30.02
2018-08-09T13:32:01.315Z,30.05
2018-08-09T13:33:05.531Z,30.08
2018-08-09T13:34:10.254Z,30.09
2018-08-09T13:35:14.394Z,30.12
2018-08-09T13:36:18.575Z,30.14
2018-08-09T13:37:22.713Z,30.16
2018-08-09T13:38:26.895Z,30.17
2018-08-09T13:39:31.222Z,30.19
2018-08-09T13:40:35.565Z,30.19
2018-08-09T13:41:39.746Z,30.22
2018-08-09T13:42:43.918Z,30.24
2018-08-09T13:43:48.126Z,30.28
2018-08-09T13:44:52.347Z,30.31
2018-08-09T13:45:56.499Z,30.35
2018-08-09T13:47:00.647Z,30.37
2018-08-09T13:48:04.862Z,30.39
2018-08-09T13:49:09.053Z,30.43